sensor_id;sensor_type;location;lat;lon;timestamp;P1;durP1;ratioP1;P2;durP2;ratioP2
8663;SDS011;4369;47.842;13.096;2023-01-04T00:02:03;10.47;;;7.43;;
8663;SDS011;4369;47.842;13.096;2023-01-04T00:04:30;13.53;;;9.03;;
8663;SDS011;4369;47.842;13.096;2023-01-04T00:06:57;38.53;;;13.00;;
8663;SDS011;4369;47.842;13.096;2023-01-04T00:09:23;15.83;;;10.30;;
8663;SDS011;4369;47.842;13.096;2023-01-04T00:11:50;23.07;;;13.23;;
8663;SDS011;4369;47.842;13.096;2023-01-04T00:14:19;28.70;;;11.93;;
8663;SDS011;4369;47.842;13.096;2023-01-04T00:16:45;82.70;;;17.47;;
8663;SDS011;4369;47.842;13.096;2023-01-04T00:19:12;38.07;;;12.80;;
8663;SDS011;4369;47.842;13.096;2023-01-04T00:21:39;22.67;;;11.00;;
8663;SDS011;4369;47.842;13.096;2023-01-04T00:24:06;20.23;;;10.70;;
8663;SDS011;4369;47.842;13.096;2023-01-04T00:26:35;27.97;;;10.60;;
8663;SDS011;4369;47.842;13.096;2023-01-04T00:29:02;13.53;;;8.40;;
8663;SDS011;4369;47.842;13.096;2023-01-04T00:31:32;14.53;;;8.30;;
8663;SDS011;4369;47.842;13.096;2023-01-04T00:34:00;11.50;;;7.87;;
8663;SDS011;4369;47.842;13.096;2023-01-04T00:36:27;9.57;;;7.30;;
8663;SDS011;4369;47.842;13.096;2023-01-04T00:38:54;9.87;;;7.07;;
8663;SDS011;4369;47.842;13.096;2023-01-04T00:41:34;10.57;;;7.87;;
8663;SDS011;4369;47.842;13.096;2023-01-04T00:44:02;12.33;;;8.10;;
8663;SDS011;4369;47.842;13.096;2023-01-04T00:46:31;11.77;;;7.40;;
8663;SDS011;4369;47.842;13.096;2023-01-04T00:49:02;9.63;;;7.30;;
8663;SDS011;4369;47.842;13.096;2023-01-04T00:51:31;8.60;;;6.47;;
8663;SDS011;4369;47.842;13.096;2023-01-04T00:53:58;9.37;;;7.37;;
8663;SDS011;4369;47.842;13.096;2023-01-04T00:56:26;9.97;;;8.20;;
8663;SDS011;4369;47.842;13.096;2023-01-04T00:58:54;11.07;;;8.97;;
8663;SDS011;4369;47.842;13.096;2023-01-04T01:01:21;16.23;;;10.40;;
8663;SDS011;4369;47.842;13.096;2023-01-04T01:03:52;14.03;;;10.30;;
8663;SDS011;4369;47.842;13.096;2023-01-04T01:06:19;11.50;;;8.90;;
8663;SDS011;4369;47.842;13.096;2023-01-04T01:08:47;13.33;;;9.60;;
8663;SDS011;4369;47.842;13.096;2023-01-04T01:11:14;11.60;;;8.83;;
8663;SDS011;4369;47.842;13.096;2023-01-04T01:13:41;7.57;;;6.03;;
8663;SDS011;4369;47.842;13.096;2023-01-04T01:16:09;7.97;;;5.87;;
8663;SDS011;4369;47.842;13.096;2023-01-04T01:18:37;7.10;;;5.20;;
8663;SDS011;4369;47.842;13.096;2023-01-04T01:21:07;6.00;;;5.03;;
8663;SDS011;4369;47.842;13.096;2023-01-04T01:23:35;7.53;;;5.83;;
8663;SDS011;4369;47.842;13.096;2023-01-04T01:26:03;10.07;;;6.73;;
8663;SDS011;4369;47.842;13.096;2023-01-04T01:28:32;10.87;;;6.57;;
8663;SDS011;4369;47.842;13.096;2023-01-04T01:31:04;13.00;;;6.70;;
8663;SDS011;4369;47.842;13.096;2023-01-04T01:33:31;10.03;;;5.43;;
8663;SDS011;4369;47.842;13.096;2023-01-04T01:35:59;12.97;;;7.30;;
8663;SDS011;4369;47.842;13.096;2023-01-04T01:38:27;9.80;;;5.80;;
8663;SDS011;4369;47.842;13.096;2023-01-04T01:40:54;7.53;;;5.33;;
8663;SDS011;4369;47.842;13.096;2023-01-04T01:43:22;8.90;;;5.30;;
8663;SDS011;4369;47.842;13.096;2023-01-04T01:46:09;14.67;;;7.00;;
8663;SDS011;4369;47.842;13.096;2023-01-04T01:48:36;15.00;;;8.47;;
8663;SDS011;4369;47.842;13.096;2023-01-04T01:51:04;10.17;;;6.80;;
8663;SDS011;4369;47.842;13.096;2023-01-04T01:53:34;10.50;;;6.30;;
8663;SDS011;4369;47.842;13.096;2023-01-04T01:56:04;9.03;;;6.20;;
8663;SDS011;4369;47.842;13.096;2023-01-04T01:58:33;9.13;;;6.00;;
8663;SDS011;4369;47.842;13.096;2023-01-04T02:01:03;13.53;;;7.33;;
8663;SDS011;4369;47.842;13.096;2023-01-04T02:03:31;9.17;;;7.50;;
8663;SDS011;4369;47.842;13.096;2023-01-04T02:06:01;8.57;;;6.30;;
8663;SDS011;4369;47.842;13.096;2023-01-04T02:08:33;5.13;;;4.37;;
8663;SDS011;4369;47.842;13.096;2023-01-04T02:11:02;4.10;;;3.70;;
8663;SDS011;4369;47.842;13.096;2023-01-04T02:13:29;4.23;;;3.80;;
8663;SDS011;4369;47.842;13.096;2023-01-04T02:16:14;4.40;;;3.70;;
8663;SDS011;4369;47.842;13.096;2023-01-04T02:18:51;4.90;;;4.40;;
8663;SDS011;4369;47.842;13.096;2023-01-04T02:21:24;5.90;;;4.83;;
8663;SDS011;4369;47.842;13.096;2023-01-04T02:27:16;5.73;;;4.30;;
8663;SDS011;4369;47.842;13.096;2023-01-04T02:30:14;6.60;;;4.90;;
8663;SDS011;4369;47.842;13.096;2023-01-04T02:33:22;6.97;;;5.40;;
8663;SDS011;4369;47.842;13.096;2023-01-04T02:35:59;7.57;;;6.10;;
8663;SDS011;4369;47.842;13.096;2023-01-04T02:38:38;5.37;;;4.70;;
8663;SDS011;4369;47.842;13.096;2023-01-04T02:41:13;4.97;;;4.47;;
8663;SDS011;4369;47.842;13.096;2023-01-04T02:43:49;4.90;;;4.40;;
8663;SDS011;4369;47.842;13.096;2023-01-04T02:46:39;6.43;;;5.00;;
8663;SDS011;4369;47.842;13.096;2023-01-04T02:49:09;7.03;;;5.73;;
8663;SDS011;4369;47.842;13.096;2023-01-04T02:51:53;6.13;;;5.37;;
8663;SDS011;4369;47.842;13.096;2023-01-04T02:54:20;5.47;;;4.77;;
8663;SDS011;4369;47.842;13.096;2023-01-04T02:56:58;4.83;;;4.27;;
8663;SDS011;4369;47.842;13.096;2023-01-04T02:59:38;4.57;;;4.07;;
8663;SDS011;4369;47.842;13.096;2023-01-04T03:02:28;4.93;;;3.97;;
8663;SDS011;4369;47.842;13.096;2023-01-04T03:05:27;6.37;;;4.53;;
8663;SDS011;4369;47.842;13.096;2023-01-04T03:08:23;5.00;;;4.50;;
8663;SDS011;4369;47.842;13.096;2023-01-04T03:10:58;5.10;;;4.60;;
8663;SDS011;4369;47.842;13.096;2023-01-04T03:13:28;6.83;;;4.77;;
8663;SDS011;4369;47.842;13.096;2023-01-04T03:16:00;5.83;;;4.23;;
8663;SDS011;4369;47.842;13.096;2023-01-04T03:18:34;5.67;;;5.07;;
8663;SDS011;4369;47.842;13.096;2023-01-04T03:21:05;4.30;;;3.90;;
8663;SDS011;4369;47.842;13.096;2023-01-04T03:23:35;4.83;;;4.33;;
8663;SDS011;4369;47.842;13.096;2023-01-04T03:26:24;4.47;;;4.07;;
8663;SDS011;4369;47.842;13.096;2023-01-04T03:29:12;4.40;;;3.93;;
8663;SDS011;4369;47.842;13.096;2023-01-04T03:32:00;5.97;;;4.50;;
8663;SDS011;4369;47.842;13.096;2023-01-04T03:34:50;4.77;;;4.30;;
8663;SDS011;4369;47.842;13.096;2023-01-04T03:37:36;4.83;;;4.33;;
8663;SDS011;4369;47.842;13.096;2023-01-04T03:40:18;4.70;;;4.30;;
8663;SDS011;4369;47.842;13.096;2023-01-04T03:43:08;4.90;;;4.50;;
8663;SDS011;4369;47.842;13.096;2023-01-04T03:46:01;5.03;;;4.53;;
8663;SDS011;4369;47.842;13.096;2023-01-04T03:48:52;4.47;;;4.07;;
8663;SDS011;4369;47.842;13.096;2023-01-04T03:51:25;4.03;;;3.73;;
8663;SDS011;4369;47.842;13.096;2023-01-04T03:53:54;4.40;;;4.00;;
8663;SDS011;4369;47.842;13.096;2023-01-04T03:56:28;3.60;;;3.30;;
8663;SDS011;4369;47.842;13.096;2023-01-04T03:58:56;3.97;;;3.40;;
8663;SDS011;4369;47.842;13.096;2023-01-04T04:01:24;3.70;;;3.40;;
8663;SDS011;4369;47.842;13.096;2023-01-04T04:03:52;4.30;;;3.70;;
8663;SDS011;4369;47.842;13.096;2023-01-04T04:06:38;3.97;;;3.57;;
8663;SDS011;4369;47.842;13.096;2023-01-04T04:09:23;3.43;;;3.13;;
8663;SDS011;4369;47.842;13.096;2023-01-04T04:11:49;3.77;;;3.33;;
8663;SDS011;4369;47.842;13.096;2023-01-04T04:14:16;3.70;;;3.37;;
8663;SDS011;4369;47.842;13.096;2023-01-04T04:16:43;3.70;;;3.40;;
8663;SDS011;4369;47.842;13.096;2023-01-04T04:19:10;3.80;;;3.50;;
8663;SDS011;4369;47.842;13.096;2023-01-04T04:21:38;4.00;;;3.60;;
8663;SDS011;4369;47.842;13.096;2023-01-04T04:24:05;4.17;;;3.77;;
8663;SDS011;4369;47.842;13.096;2023-01-04T04:26:33;3.70;;;3.40;;
8663;SDS011;4369;47.842;13.096;2023-01-04T04:28:59;5.07;;;3.67;;
8663;SDS011;4369;47.842;13.096;2023-01-04T04:31:26;3.33;;;3.13;;
8663;SDS011;4369;47.842;13.096;2023-01-04T04:33:53;3.93;;;3.53;;
8663;SDS011;4369;47.842;13.096;2023-01-04T04:36:20;3.93;;;3.60;;
8663;SDS011;4369;47.842;13.096;2023-01-04T04:38:48;3.80;;;3.50;;
8663;SDS011;4369;47.842;13.096;2023-01-04T04:41:15;3.73;;;3.43;;
8663;SDS011;4369;47.842;13.096;2023-01-04T04:43:59;4.30;;;3.90;;
8663;SDS011;4369;47.842;13.096;2023-01-04T04:46:26;4.80;;;4.07;;
8663;SDS011;4369;47.842;13.096;2023-01-04T04:48:53;4.53;;;3.83;;
8663;SDS011;4369;47.842;13.096;2023-01-04T04:51:20;4.40;;;3.87;;
8663;SDS011;4369;47.842;13.096;2023-01-04T04:53:49;4.90;;;4.20;;
8663;SDS011;4369;47.842;13.096;2023-01-04T04:56:16;5.30;;;4.37;;
8663;SDS011;4369;47.842;13.096;2023-01-04T04:58:42;7.33;;;3.90;;
8663;SDS011;4369;47.842;13.096;2023-01-04T05:01:09;3.87;;;3.10;;
8663;SDS011;4369;47.842;13.096;2023-01-04T05:03:37;3.57;;;3.27;;
8663;SDS011;4369;47.842;13.096;2023-01-04T05:06:04;3.70;;;3.27;;
8663;SDS011;4369;47.842;13.096;2023-01-04T05:08:31;3.50;;;3.20;;
8663;SDS011;4369;47.842;13.096;2023-01-04T05:11:01;3.03;;;2.83;;
8663;SDS011;4369;47.842;13.096;2023-01-04T05:13:30;3.40;;;2.90;;
8663;SDS011;4369;47.842;13.096;2023-01-04T05:15:56;3.30;;;3.10;;
8663;SDS011;4369;47.842;13.096;2023-01-04T05:18:23;4.07;;;3.47;;
8663;SDS011;4369;47.842;13.096;2023-01-04T05:20:50;3.30;;;3.00;;
8663;SDS011;4369;47.842;13.096;2023-01-04T05:23:17;5.40;;;4.07;;
8663;SDS011;4369;47.842;13.096;2023-01-04T05:25:45;5.33;;;4.07;;
8663;SDS011;4369;47.842;13.096;2023-01-04T05:28:17;4.90;;;3.87;;
8663;SDS011;4369;47.842;13.096;2023-01-04T05:30:44;3.67;;;3.37;;
8663;SDS011;4369;47.842;13.096;2023-01-04T05:33:16;4.73;;;3.50;;
8663;SDS011;4369;47.842;13.096;2023-01-04T05:35:43;3.63;;;3.10;;
8663;SDS011;4369;47.842;13.096;2023-01-04T05:38:11;3.47;;;3.17;;
8663;SDS011;4369;47.842;13.096;2023-01-04T05:40:38;3.40;;;3.10;;
8663;SDS011;4369;47.842;13.096;2023-01-04T05:43:05;3.30;;;3.00;;
8663;SDS011;4369;47.842;13.096;2023-01-04T05:45:33;3.50;;;3.20;;
8663;SDS011;4369;47.842;13.096;2023-01-04T05:48:00;3.00;;;2.80;;
8663;SDS011;4369;47.842;13.096;2023-01-04T05:50:27;3.73;;;3.20;;
8663;SDS011;4369;47.842;13.096;2023-01-04T05:52:54;4.93;;;3.43;;
8663;SDS011;4369;47.842;13.096;2023-01-04T05:55:21;3.70;;;3.40;;
8663;SDS011;4369;47.842;13.096;2023-01-04T05:57:48;4.70;;;3.10;;
8663;SDS011;4369;47.842;13.096;2023-01-04T06:00:16;3.87;;;3.47;;
8663;SDS011;4369;47.842;13.096;2023-01-04T06:02:44;4.10;;;3.75;;
8663;SDS011;4369;47.842;13.096;2023-01-04T06:05:12;3.70;;;3.40;;
8663;SDS011;4369;47.842;13.096;2023-01-04T06:07:40;8.40;;;5.10;;
8663;SDS011;4369;47.842;13.096;2023-01-04T06:10:07;6.57;;;4.67;;
8663;SDS011;4369;47.842;13.096;2023-01-04T06:12:36;7.87;;;5.13;;
8663;SDS011;4369;47.842;13.096;2023-01-04T06:15:04;5.40;;;4.50;;
8663;SDS011;4369;47.842;13.096;2023-01-04T06:17:32;6.17;;;4.43;;
8663;SDS011;4369;47.842;13.096;2023-01-04T06:20:01;7.90;;;4.57;;
8663;SDS011;4369;47.842;13.096;2023-01-04T06:22:28;6.07;;;4.40;;
8663;SDS011;4369;47.842;13.096;2023-01-04T06:24:56;6.40;;;4.60;;
8663;SDS011;4369;47.842;13.096;2023-01-04T06:27:23;5.50;;;4.90;;
8663;SDS011;4369;47.842;13.096;2023-01-04T06:29:50;6.47;;;5.77;;
8663;SDS011;4369;47.842;13.096;2023-01-04T06:32:17;13.73;;;10.20;;
8663;SDS011;4369;47.842;13.096;2023-01-04T06:34:44;11.60;;;8.40;;
8663;SDS011;4369;47.842;13.096;2023-01-04T06:37:12;11.90;;;6.03;;
8663;SDS011;4369;47.842;13.096;2023-01-04T06:39:39;6.97;;;5.83;;
8663;SDS011;4369;47.842;13.096;2023-01-04T06:42:06;8.67;;;6.23;;
8663;SDS011;4369;47.842;13.096;2023-01-04T06:44:54;7.57;;;5.67;;
8663;SDS011;4369;47.842;13.096;2023-01-04T06:47:21;6.90;;;5.30;;
8663;SDS011;4369;47.842;13.096;2023-01-04T06:49:48;6.77;;;5.40;;
8663;SDS011;4369;47.842;13.096;2023-01-04T06:52:16;7.40;;;5.20;;
8663;SDS011;4369;47.842;13.096;2023-01-04T06:54:43;7.03;;;5.30;;
8663;SDS011;4369;47.842;13.096;2023-01-04T06:57:10;7.20;;;5.30;;
8663;SDS011;4369;47.842;13.096;2023-01-04T06:59:37;5.53;;;4.93;;
8663;SDS011;4369;47.842;13.096;2023-01-04T07:02:04;6.37;;;5.70;;
8663;SDS011;4369;47.842;13.096;2023-01-04T07:04:31;8.47;;;5.57;;
8663;SDS011;4369;47.842;13.096;2023-01-04T07:06:58;10.53;;;7.47;;
8663;SDS011;4369;47.842;13.096;2023-01-04T07:09:26;9.90;;;7.47;;
8663;SDS011;4369;47.842;13.096;2023-01-04T07:11:53;13.90;;;10.23;;
8663;SDS011;4369;47.842;13.096;2023-01-04T07:14:21;14.03;;;11.10;;
8663;SDS011;4369;47.842;13.096;2023-01-04T07:16:48;10.07;;;7.97;;
8663;SDS011;4369;47.842;13.096;2023-01-04T07:19:15;7.83;;;6.10;;
8663;SDS011;4369;47.842;13.096;2023-01-04T07:21:42;7.13;;;6.40;;
8663;SDS011;4369;47.842;13.096;2023-01-04T07:24:09;9.67;;;6.13;;
8663;SDS011;4369;47.842;13.096;2023-01-04T07:26:37;7.90;;;6.03;;
8663;SDS011;4369;47.842;13.096;2023-01-04T07:29:04;9.57;;;6.47;;
8663;SDS011;4369;47.842;13.096;2023-01-04T07:31:41;6.97;;;5.73;;
8663;SDS011;4369;47.842;13.096;2023-01-04T07:34:09;9.90;;;6.83;;
8663;SDS011;4369;47.842;13.096;2023-01-04T07:36:36;10.40;;;8.30;;
8663;SDS011;4369;47.842;13.096;2023-01-04T07:39:04;9.97;;;8.40;;
8663;SDS011;4369;47.842;13.096;2023-01-04T07:41:31;9.83;;;8.87;;
8663;SDS011;4369;47.842;13.096;2023-01-04T07:44:00;9.57;;;7.03;;
8663;SDS011;4369;47.842;13.096;2023-01-04T07:46:26;9.27;;;7.97;;
8663;SDS011;4369;47.842;13.096;2023-01-04T07:48:54;11.43;;;8.10;;
8663;SDS011;4369;47.842;13.096;2023-01-04T07:51:21;9.13;;;7.47;;
8663;SDS011;4369;47.842;13.096;2023-01-04T07:53:47;10.10;;;7.93;;
8663;SDS011;4369;47.842;13.096;2023-01-04T07:56:14;10.57;;;7.50;;
8663;SDS011;4369;47.842;13.096;2023-01-04T07:58:41;8.30;;;6.87;;
8663;SDS011;4369;47.842;13.096;2023-01-04T08:01:10;7.50;;;6.70;;
8663;SDS011;4369;47.842;13.096;2023-01-04T08:03:38;11.03;;;6.93;;
8663;SDS011;4369;47.842;13.096;2023-01-04T08:06:06;7.13;;;6.50;;
8663;SDS011;4369;47.842;13.096;2023-01-04T08:08:34;8.63;;;6.87;;
8663;SDS011;4369;47.842;13.096;2023-01-04T08:11:02;7.40;;;5.97;;
8663;SDS011;4369;47.842;13.096;2023-01-04T08:13:29;7.80;;;6.00;;
8663;SDS011;4369;47.842;13.096;2023-01-04T08:15:56;6.93;;;5.97;;
8663;SDS011;4369;47.842;13.096;2023-01-04T08:18:24;9.27;;;5.97;;
8663;SDS011;4369;47.842;13.096;2023-01-04T08:20:59;9.37;;;6.03;;
8663;SDS011;4369;47.842;13.096;2023-01-04T08:23:27;10.10;;;6.10;;
8663;SDS011;4369;47.842;13.096;2023-01-04T08:25:54;8.67;;;6.60;;
8663;SDS011;4369;47.842;13.096;2023-01-04T08:28:21;29.33;;;16.13;;
8663;SDS011;4369;47.842;13.096;2023-01-04T08:30:48;29.47;;;16.17;;
8663;SDS011;4369;47.842;13.096;2023-01-04T08:33:15;23.30;;;13.60;;
8663;SDS011;4369;47.842;13.096;2023-01-04T08:35:44;18.57;;;12.93;;
8663;SDS011;4369;47.842;13.096;2023-01-04T08:38:13;18.20;;;11.77;;
8663;SDS011;4369;47.842;13.096;2023-01-04T08:40:40;19.93;;;12.13;;
8663;SDS011;4369;47.842;13.096;2023-01-04T08:43:07;16.47;;;10.63;;
8663;SDS011;4369;47.842;13.096;2023-01-04T08:45:34;17.53;;;12.70;;
8663;SDS011;4369;47.842;13.096;2023-01-04T08:48:01;18.40;;;12.07;;
8663;SDS011;4369;47.842;13.096;2023-01-04T08:50:28;17.27;;;12.70;;
8663;SDS011;4369;47.842;13.096;2023-01-04T08:52:56;16.43;;;12.30;;
8663;SDS011;4369;47.842;13.096;2023-01-04T08:55:24;15.10;;;10.07;;
8663;SDS011;4369;47.842;13.096;2023-01-04T08:57:51;19.63;;;10.63;;
8663;SDS011;4369;47.842;13.096;2023-01-04T09:00:18;19.30;;;12.33;;
8663;SDS011;4369;47.842;13.096;2023-01-04T09:02:45;16.27;;;11.33;;
8663;SDS011;4369;47.842;13.096;2023-01-04T09:05:12;14.33;;;9.53;;
8663;SDS011;4369;47.842;13.096;2023-01-04T09:07:39;14.50;;;8.83;;
8663;SDS011;4369;47.842;13.096;2023-01-04T09:10:09;14.20;;;9.20;;
8663;SDS011;4369;47.842;13.096;2023-01-04T09:12:36;13.80;;;10.03;;
8663;SDS011;4369;47.842;13.096;2023-01-04T09:15:03;16.87;;;10.47;;
8663;SDS011;4369;47.842;13.096;2023-01-04T09:17:32;13.40;;;9.37;;
8663;SDS011;4369;47.842;13.096;2023-01-04T09:19:59;12.07;;;8.47;;
8663;SDS011;4369;47.842;13.096;2023-01-04T09:22:26;7.57;;;6.13;;
8663;SDS011;4369;47.842;13.096;2023-01-04T09:24:53;9.87;;;6.47;;
8663;SDS011;4369;47.842;13.096;2023-01-04T09:27:21;7.37;;;6.20;;
8663;SDS011;4369;47.842;13.096;2023-01-04T09:29:48;6.87;;;5.97;;
8663;SDS011;4369;47.842;13.096;2023-01-04T09:32:15;7.23;;;5.40;;
8663;SDS011;4369;47.842;13.096;2023-01-04T09:34:42;5.53;;;4.77;;
8663;SDS011;4369;47.842;13.096;2023-01-04T09:37:09;4.50;;;4.10;;
8663;SDS011;4369;47.842;13.096;2023-01-04T09:39:36;3.60;;;3.30;;
8663;SDS011;4369;47.842;13.096;2023-01-04T09:42:04;4.93;;;3.60;;
8663;SDS011;4369;47.842;13.096;2023-01-04T09:44:46;6.07;;;4.50;;
8663;SDS011;4369;47.842;13.096;2023-01-04T09:47:16;4.20;;;3.60;;
8663;SDS011;4369;47.842;13.096;2023-01-04T09:49:51;3.30;;;3.00;;
8663;SDS011;4369;47.842;13.096;2023-01-04T09:52:24;3.40;;;2.80;;
8663;SDS011;4369;47.842;13.096;2023-01-04T09:55:00;3.27;;;2.97;;
8663;SDS011;4369;47.842;13.096;2023-01-04T09:57:29;2.73;;;2.53;;
8663;SDS011;4369;47.842;13.096;2023-01-04T10:00:00;3.43;;;2.47;;
8663;SDS011;4369;47.842;13.096;2023-01-04T10:02:33;2.43;;;2.23;;
8663;SDS011;4369;47.842;13.096;2023-01-04T10:15:28;3.60;;;3.30;;
8663;SDS011;4369;47.842;13.096;2023-01-04T10:20:48;2.50;;;2.30;;
8663;SDS011;4369;47.842;13.096;2023-01-04T10:23:40;1.90;;;1.80;;
8663;SDS011;4369;47.842;13.096;2023-01-04T10:26:24;3.23;;;2.90;;
8663;SDS011;4369;47.842;13.096;2023-01-04T10:29:08;3.23;;;2.70;;
8663;SDS011;4369;47.842;13.096;2023-01-04T11:06:59;2.90;;;2.70;;
8663;SDS011;4369;47.842;13.096;2023-01-04T11:09:34;3.35;;;2.60;;
8663;SDS011;4369;47.842;13.096;2023-01-04T11:16:58;2.58;;;2.47;;
8663;SDS011;4369;47.842;13.096;2023-01-04T11:19:30;2.63;;;1.95;;
8663;SDS011;4369;47.842;13.096;2023-01-04T11:22:00;2.60;;;2.40;;
8663;SDS011;4369;47.842;13.096;2023-01-04T11:58:11;1.80;;;1.70;;
8663;SDS011;4369;47.842;13.096;2023-01-04T12:00:42;3.13;;;2.03;;
8663;SDS011;4369;47.842;13.096;2023-01-04T12:03:43;1.90;;;1.80;;
8663;SDS011;4369;47.842;13.096;2023-01-04T12:06:23;2.77;;;2.20;;
8663;SDS011;4369;47.842;13.096;2023-01-04T12:14:23;2.07;;;1.80;;
8663;SDS011;4369;47.842;13.096;2023-01-04T12:19:39;1.77;;;1.30;;
8663;SDS011;4369;47.842;13.096;2023-01-04T12:22:14;2.80;;;1.70;;
8663;SDS011;4369;47.842;13.096;2023-01-04T12:24:46;1.50;;;1.40;;
8663;SDS011;4369;47.842;13.096;2023-01-04T12:27:13;1.37;;;1.27;;
8663;SDS011;4369;47.842;13.096;2023-01-04T12:29:54;2.73;;;1.37;;
8663;SDS011;4369;47.842;13.096;2023-01-04T12:32:42;1.23;;;1.23;;
8663;SDS011;4369;47.842;13.096;2023-01-04T12:47:52;3.33;;;1.50;;
8663;SDS011;4369;47.842;13.096;2023-01-04T13:09:20;1.40;;;1.30;;
8663;SDS011;4369;47.842;13.096;2023-01-04T13:11:51;3.53;;;1.70;;
8663;SDS011;4369;47.842;13.096;2023-01-04T13:14:31;1.93;;;1.73;;
8663;SDS011;4369;47.842;13.096;2023-01-04T13:17:06;3.30;;;1.70;;
8663;SDS011;4369;47.842;13.096;2023-01-04T13:19:44;1.90;;;1.70;;
8663;SDS011;4369;47.842;13.096;2023-01-04T13:22:16;1.87;;;1.77;;
8663;SDS011;4369;47.842;13.096;2023-01-04T13:24:47;2.60;;;1.60;;
8663;SDS011;4369;47.842;13.096;2023-01-04T13:27:16;5.20;;;2.47;;
8663;SDS011;4369;47.842;13.096;2023-01-04T13:29:45;2.13;;;1.97;;
8663;SDS011;4369;47.842;13.096;2023-01-04T13:32:15;2.13;;;1.93;;
8663;SDS011;4369;47.842;13.096;2023-01-04T13:34:51;6.73;;;2.13;;
8663;SDS011;4369;47.842;13.096;2023-01-04T13:37:29;3.50;;;1.83;;
8663;SDS011;4369;47.842;13.096;2023-01-04T13:40:10;5.00;;;2.27;;
8663;SDS011;4369;47.842;13.096;2023-01-04T13:42:47;2.87;;;2.20;;
8663;SDS011;4369;47.842;13.096;2023-01-04T13:45:26;2.77;;;2.03;;
8663;SDS011;4369;47.842;13.096;2023-01-04T13:50:38;4.20;;;2.53;;
8663;SDS011;4369;47.842;13.096;2023-01-04T13:58:16;5.83;;;4.20;;
8663;SDS011;4369;47.842;13.096;2023-01-04T14:00:45;9.50;;;4.57;;
8663;SDS011;4369;47.842;13.096;2023-01-04T14:03:21;6.40;;;4.63;;
8663;SDS011;4369;47.842;13.096;2023-01-04T14:06:09;5.47;;;3.40;;
8663;SDS011;4369;47.842;13.096;2023-01-04T14:08:45;4.33;;;3.00;;
8663;SDS011;4369;47.842;13.096;2023-01-04T14:11:20;3.03;;;2.33;;
8663;SDS011;4369;47.842;13.096;2023-01-04T14:14:27;7.43;;;6.00;;
8663;SDS011;4369;47.842;13.096;2023-01-04T14:19:55;6.50;;;3.00;;
8663;SDS011;4369;47.842;13.096;2023-01-04T14:22:34;5.47;;;2.90;;
8663;SDS011;4369;47.842;13.096;2023-01-04T14:28:27;2.90;;;2.60;;
8663;SDS011;4369;47.842;13.096;2023-01-04T14:33:26;3.33;;;2.50;;
8663;SDS011;4369;47.842;13.096;2023-01-04T14:36:00;3.20;;;2.60;;
8663;SDS011;4369;47.842;13.096;2023-01-04T14:38:29;3.33;;;3.03;;
8663;SDS011;4369;47.842;13.096;2023-01-04T14:41:08;2.67;;;2.30;;
8663;SDS011;4369;47.842;13.096;2023-01-04T14:43:42;3.33;;;2.20;;
8663;SDS011;4369;47.842;13.096;2023-01-04T14:46:10;4.20;;;2.27;;
8663;SDS011;4369;47.842;13.096;2023-01-04T14:48:38;4.60;;;2.40;;
8663;SDS011;4369;47.842;13.096;2023-01-04T14:51:05;2.53;;;2.33;;
8663;SDS011;4369;47.842;13.096;2023-01-04T14:53:33;2.40;;;1.80;;
8663;SDS011;4369;47.842;13.096;2023-01-04T14:56:00;1.97;;;1.87;;
8663;SDS011;4369;47.842;13.096;2023-01-04T14:58:27;2.10;;;2.00;;
8663;SDS011;4369;47.842;13.096;2023-01-04T15:00:54;3.60;;;2.20;;
8663;SDS011;4369;47.842;13.096;2023-01-04T15:03:21;3.27;;;2.00;;
8663;SDS011;4369;47.842;13.096;2023-01-04T15:05:49;2.93;;;2.30;;
8663;SDS011;4369;47.842;13.096;2023-01-04T15:08:16;3.53;;;2.30;;
8663;SDS011;4369;47.842;13.096;2023-01-04T15:10:43;3.83;;;2.70;;
8663;SDS011;4369;47.842;13.096;2023-01-04T15:13:12;1.83;;;1.73;;
8663;SDS011;4369;47.842;13.096;2023-01-04T15:15:39;1.60;;;1.50;;
8663;SDS011;4369;47.842;13.096;2023-01-04T15:18:06;2.57;;;1.83;;
8663;SDS011;4369;47.842;13.096;2023-01-04T15:20:33;3.27;;;1.83;;
8663;SDS011;4369;47.842;13.096;2023-01-04T15:23:02;1.47;;;1.37;;
8663;SDS011;4369;47.842;13.096;2023-01-04T15:25:29;2.60;;;1.83;;
8663;SDS011;4369;47.842;13.096;2023-01-04T15:27:56;3.37;;;2.00;;
8663;SDS011;4369;47.842;13.096;2023-01-04T15:30:23;1.63;;;1.40;;
8663;SDS011;4369;47.842;13.096;2023-01-04T15:32:50;1.80;;;1.70;;
8663;SDS011;4369;47.842;13.096;2023-01-04T15:35:17;2.17;;;1.20;;
8663;SDS011;4369;47.842;13.096;2023-01-04T15:37:49;1.30;;;1.30;;
8663;SDS011;4369;47.842;13.096;2023-01-04T15:40:27;1.83;;;1.40;;
8663;SDS011;4369;47.842;13.096;2023-01-04T15:43:05;1.83;;;1.47;;
8663;SDS011;4369;47.842;13.096;2023-01-04T15:48:07;3.50;;;1.73;;
8663;SDS011;4369;47.842;13.096;2023-01-04T15:55:49;2.20;;;1.53;;
8663;SDS011;4369;47.842;13.096;2023-01-04T16:00:53;4.47;;;2.97;;
8663;SDS011;4369;47.842;13.096;2023-01-04T16:05:46;3.63;;;2.80;;
8663;SDS011;4369;47.842;13.096;2023-01-04T16:08:13;3.47;;;2.43;;
8663;SDS011;4369;47.842;13.096;2023-01-04T16:18:18;3.73;;;2.70;;
8663;SDS011;4369;47.842;13.096;2023-01-04T16:20:45;9.90;;;3.20;;
8663;SDS011;4369;47.842;13.096;2023-01-04T16:23:12;3.27;;;2.97;;
8663;SDS011;4369;47.842;13.096;2023-01-04T16:25:39;5.00;;;2.90;;
8663;SDS011;4369;47.842;13.096;2023-01-04T16:35:58;7.27;;;3.17;;
8663;SDS011;4369;47.842;13.096;2023-01-04T16:38:26;7.40;;;4.07;;
8663;SDS011;4369;47.842;13.096;2023-01-04T16:40:57;4.13;;;3.53;;
8663;SDS011;4369;47.842;13.096;2023-01-04T16:43:25;6.80;;;4.07;;
8663;SDS011;4369;47.842;13.096;2023-01-04T16:48:53;4.93;;;3.23;;
8663;SDS011;4369;47.842;13.096;2023-01-04T16:51:23;5.60;;;3.80;;
8663;SDS011;4369;47.842;13.096;2023-01-04T16:53:52;3.70;;;3.20;;
8663;SDS011;4369;47.842;13.096;2023-01-04T16:56:20;3.47;;;3.17;;
8663;SDS011;4369;47.842;13.096;2023-01-04T16:58:49;5.03;;;3.77;;
8663;SDS011;4369;47.842;13.096;2023-01-04T17:01:17;8.57;;;4.50;;
8663;SDS011;4369;47.842;13.096;2023-01-04T17:03:46;5.77;;;4.63;;
8663;SDS011;4369;47.842;13.096;2023-01-04T17:06:14;6.23;;;4.43;;
8663;SDS011;4369;47.842;13.096;2023-01-04T17:08:44;7.33;;;4.97;;
8663;SDS011;4369;47.842;13.096;2023-01-04T17:11:13;4.93;;;4.10;;
8663;SDS011;4369;47.842;13.096;2023-01-04T17:13:42;4.47;;;4.07;;
8663;SDS011;4369;47.842;13.096;2023-01-04T17:16:09;6.43;;;3.53;;
8663;SDS011;4369;47.842;13.096;2023-01-04T17:18:37;4.20;;;3.80;;
8663;SDS011;4369;47.842;13.096;2023-01-04T17:21:05;4.13;;;3.67;;
8663;SDS011;4369;47.842;13.096;2023-01-04T17:23:34;4.43;;;3.50;;
8663;SDS011;4369;47.842;13.096;2023-01-04T17:26:04;5.33;;;3.83;;
8663;SDS011;4369;47.842;13.096;2023-01-04T17:28:32;4.87;;;3.90;;
8663;SDS011;4369;47.842;13.096;2023-01-04T17:31:03;4.47;;;3.63;;
8663;SDS011;4369;47.842;13.096;2023-01-04T17:33:30;4.67;;;3.87;;
8663;SDS011;4369;47.842;13.096;2023-01-04T17:36:00;7.97;;;4.53;;
8663;SDS011;4369;47.842;13.096;2023-01-04T17:38:28;9.23;;;5.63;;
8663;SDS011;4369;47.842;13.096;2023-01-04T17:40:54;6.70;;;5.13;;
8663;SDS011;4369;47.842;13.096;2023-01-04T17:43:23;7.20;;;5.43;;
8663;SDS011;4369;47.842;13.096;2023-01-04T17:45:49;5.83;;;4.60;;
8663;SDS011;4369;47.842;13.096;2023-01-04T17:48:16;8.00;;;5.00;;
8663;SDS011;4369;47.842;13.096;2023-01-04T17:50:43;6.47;;;5.00;;
8663;SDS011;4369;47.842;13.096;2023-01-04T17:53:10;6.00;;;4.63;;
8663;SDS011;4369;47.842;13.096;2023-01-04T17:55:37;6.63;;;5.10;;
8663;SDS011;4369;47.842;13.096;2023-01-04T17:58:04;7.27;;;6.30;;
8663;SDS011;4369;47.842;13.096;2023-01-04T18:00:32;16.33;;;10.57;;
8663;SDS011;4369;47.842;13.096;2023-01-04T18:02:59;11.77;;;8.50;;
8663;SDS011;4369;47.842;13.096;2023-01-04T18:05:26;13.77;;;8.93;;
8663;SDS011;4369;47.842;13.096;2023-01-04T18:07:52;12.47;;;8.33;;
8663;SDS011;4369;47.842;13.096;2023-01-04T18:10:19;9.43;;;7.27;;
8663;SDS011;4369;47.842;13.096;2023-01-04T18:12:47;10.80;;;7.47;;
8663;SDS011;4369;47.842;13.096;2023-01-04T18:15:13;9.87;;;6.90;;
8663;SDS011;4369;47.842;13.096;2023-01-04T18:17:42;10.67;;;6.70;;